Dusty Bend, South Carolina
Current Conditions -  °F | °C
As of 9:35 PM on Tuesday 21 Oct 2014 (Local Time) from KCDN Reporting Station
Scattered Clouds Scattered Clouds  
Wind Chill: 64°   Ceiling: Unl
Heat Index: 64°   Visibility: 10mi
Dew Point: 48°   Wind: 6mph
Humidity: 56%   Direction: 340°NNW
Pressure: 29.94"   Gusts: NA
Location:  34.2974°N, 80.6089°W
Report Text: KCDN 220135Z AUTO 34005KT 10SM SCT070 18/09 A2994 RMK AO2 TSNO
Loading
Personal Weather Stations






























Interactive Weather Map New forecast layout! Learn more

10-Day Weather Forecast

Advertisements
Track Severe Weather on mobile